Time;durP1;ratioP1;P1;durP2;ratioP2;P2;SDS_P1;SDS_P2;PMS_P1;PMS_P2;Temp;Humidity;BMP_temperature;BMP_pressure;BME280_temperature;BME280_humidity;BME280_pressure;Samples;Min_cycle;Max_cycle;Signal;HPM_P1;HPM_P2
2023/08/05 00:00:36;;;;;;;4.90;4.30;;;;;;;25.52;100.00;99544.61;105882;1254;74408;-75
2023/08/05 00:03:03;;;;;;;4.30;3.90;;;;;;;25.51;100.00;99541.19;105901;1256;71760;-75
2023/08/05 00:05:30;;;;;;;5.10;4.20;;;;;;;25.48;100.00;99541.64;105916;1254;72556;-74
2023/08/05 00:07:56;;;;;;;9.90;4.10;;;;;;;25.45;100.00;99541.15;105820;1254;61332;-74
2023/08/05 00:10:23;;;;;;;7.20;4.10;;;;;;;25.42;100.00;99543.49;105882;1256;61346;-76
2023/08/05 00:12:50;;;;;;;7.80;3.90;;;;;;;25.38;100.00;99548.66;105883;1255;74459;-75
2023/08/05 00:15:17;;;;;;;4.00;3.60;;;;;;;25.35;100.00;99547.74;105864;1256;61366;-75
2023/08/05 00:17:43;;;;;;;4.80;3.70;;;;;;;25.31;100.00;99544.90;105894;1255;70615;-75
2023/08/05 00:20:12;;;;;;;6.80;3.60;;;;;;;25.27;100.00;99540.23;105854;1254;61397;-75
2023/08/05 00:22:38;;;;;;;4.30;3.90;;;;;;;25.24;100.00;99536.94;105881;1263;61235;-74
2023/08/05 00:25:05;;;;;;;4.10;3.60;;;;;;;25.19;100.00;99541.50;105876;1255;74515;-75
2023/08/05 00:27:32;;;;;;;5.10;4.10;;;;;;;25.15;100.00;99538.96;105924;1252;70882;-75
2023/08/05 00:29:59;;;;;;;4.10;3.80;;;;;;;25.13;100.00;99537.05;105883;1262;61268;-74
2023/08/05 00:32:27;;;;;;;4.30;3.70;;;;;;;25.10;100.00;99533.88;105865;1256;61231;-74
2023/08/05 00:34:54;;;;;;;3.70;3.40;;;;;;;25.08;100.00;99535.75;105900;1256;61260;-75
2023/08/05 00:37:20;;;;;;;5.40;3.90;;;;;;;25.05;100.00;99537.80;105868;1254;74610;-74
2023/08/05 00:39:47;;;;;;;7.80;3.60;;;;;;;25.01;100.00;99533.16;105851;1254;69548;-74
2023/08/05 00:42:18;;;;;;;4.60;3.70;;;;;;;24.98;100.00;99527.18;105855;1254;61346;-75
2023/08/05 00:44:46;;;;;;;4.00;3.70;;;;;;;24.95;100.00;99520.95;105845;1257;61841;-75
2023/08/05 00:47:15;;;;;;;8.30;3.60;;;;;;;24.93;100.00;99520.60;105894;1256;61358;-75
2023/08/05 00:49:42;;;;;;;4.90;4.10;;;;;;;24.92;100.00;99521.66;105950;1256;73454;-75
2023/08/05 00:52:09;;;;;;;4.30;3.60;;;;;;;24.91;100.00;99523.55;105882;1257;69701;-75
2023/08/05 00:54:35;;;;;;;4.10;3.60;;;;;;;24.88;100.00;99524.73;105803;1257;72442;-74
2023/08/05 00:57:02;;;;;;;8.40;4.20;;;;;;;24.84;100.00;99523.36;105863;1254;61292;-75
2023/08/05 00:59:29;;;;;;;4.00;3.60;;;;;;;24.83;100.00;99527.83;105952;1258;61158;-75
2023/08/05 01:01:56;;;;;;;4.50;3.30;;;;;;;24.81;100.00;99529.42;105857;1257;61281;-75
2023/08/05 01:04:24;;;;;;;4.30;3.90;;;;;;;24.79;100.00;99533.55;105995;1251;71171;-75
2023/08/05 01:06:51;;;;;;;5.00;3.40;;;;;;;24.77;100.00;99534.84;105869;1251;72547;-75
2023/08/05 01:09:18;;;;;;;4.40;3.90;;;;;;;24.75;100.00;99532.20;105881;1254;61289;-75
2023/08/05 01:11:45;;;;;;;4.00;3.60;;;;;;;24.73;100.00;99531.42;105902;1255;61343;-74
2023/08/05 01:14:12;;;;;;;5.20;3.50;;;;;;;24.72;100.00;99531.20;105889;1257;74316;-74
2023/08/05 01:16:38;;;;;;;4.00;3.70;;;;;;;24.69;100.00;99529.71;105854;1254;71334;-75
2023/08/05 01:19:09;;;;;;;3.90;3.60;;;;;;;24.66;100.00;99536.23;105807;1255;72458;-74
2023/08/05 01:21:42;;;;;;;5.40;3.90;;;;;;;24.64;100.00;99540.70;105868;1256;61263;-75
2023/08/05 01:24:16;;;;;;;4.10;3.70;;;;;;;24.60;100.00;99539.66;105856;1252;61312;-73
2023/08/05 01:26:43;;;;;;;6.40;4.30;;;;;;;24.56;100.00;99543.66;105901;1255;74713;-75
2023/08/05 01:29:10;;;;;;;4.20;3.90;;;;;;;24.53;100.00;99539.02;105727;1259;70924;-74
2023/08/05 01:31:36;;;;;;;6.00;3.70;;;;;;;24.51;100.00;99546.06;105876;1255;72486;-74
2023/08/05 01:34:03;;;;;;;5.60;3.80;;;;;;;24.47;100.00;99549.25;105869;1253;61247;-74
2023/08/05 01:36:30;;;;;;;4.40;4.00;;;;;;;24.43;100.00;99547.44;105908;1256;61340;-74
2023/08/05 01:38:57;;;;;;;4.60;4.00;;;;;;;24.41;100.00;99549.14;105881;1257;74645;-74
2023/08/05 01:41:24;;;;;;;7.30;3.80;;;;;;;24.37;100.00;99554.11;105853;1257;69610;-75
2023/08/05 01:43:50;;;;;;;4.40;4.00;;;;;;;24.35;100.00;99550.73;105709;1257;71352;-75
2023/08/05 01:46:17;;;;;;;6.60;3.90;;;;;;;24.33;100.00;99552.90;105837;1254;61369;-75
2023/08/05 01:48:43;;;;;;;6.00;3.80;;;;;;;24.31;100.00;99556.61;105866;1255;61324;-75
2023/08/05 01:51:10;;;;;;;4.40;3.60;;;;;;;24.29;100.00;99552.53;105900;1252;74612;-75
2023/08/05 01:53:37;;;;;;;5.70;3.90;;;;;;;24.26;100.00;99558.54;105839;1254;70904;-75
2023/08/05 01:56:04;;;;;;;4.30;3.90;;;;;;;24.23;100.00;99561.90;105898;1255;72524;-75
2023/08/05 01:58:31;;;;;;;5.20;3.70;;;;;;;24.20;100.00;99568.54;105854;1252;61349;-75
2023/08/05 02:00:59;;;;;;;6.50;4.10;;;;;;;24.19;100.00;99567.24;105826;1256;61426;-74
2023/08/05 02:03:29;;;;;;;4.10;3.50;;;;;;;24.18;100.00;99571.69;106017;1254;74553;-75
2023/08/05 02:05:56;;;;;;;6.60;3.70;;;;;;;24.16;100.00;99568.94;105922;1252;71542;-74
2023/08/05 02:08:23;;;;;;;4.40;3.90;;;;;;;24.15;100.00;99564.77;105844;1253;72332;-75
2023/08/05 02:10:50;;;;;;;5.50;3.80;;;;;;;24.13;100.00;99562.42;105814;1251;61328;-75
2023/08/05 02:13:16;;;;;;;3.80;3.50;;;;;;;24.12;100.00;99559.11;105727;1251;61228;-75
2023/08/05 02:15:43;;;;;;;4.10;3.70;;;;;;;24.09;100.00;99561.45;105877;1254;74452;-75
2023/08/05 02:18:10;;;;;;;4.00;3.50;;;;;;;24.07;100.00;99562.24;105913;1250;61310;-74
2023/08/05 02:20:36;;;;;;;4.30;3.80;;;;;;;24.02;100.00;99567.67;105868;1251;72663;-75
2023/08/05 02:23:03;;;;;;;4.30;3.30;;;;;;;23.99;100.00;99568.98;105856;1254;61263;-75
2023/08/05 02:25:30;;;;;;;3.80;3.40;;;;;;;23.96;100.00;99572.85;105861;1251;61335;-75
2023/08/05 02:27:56;;;;;;;5.30;3.70;;;;;;;23.93;100.00;99573.19;105840;1255;61280;-75
2023/08/05 02:30:23;;;;;;;6.50;4.00;;;;;;;23.90;100.00;99582.06;105869;1253;70776;-75
2023/08/05 02:32:49;;;;;;;4.20;3.30;;;;;;;23.87;100.00;99585.14;105879;1255;61298;-74
2023/08/05 02:35:16;;;;;;;3.80;3.50;;;;;;;23.86;100.00;99589.86;105693;1257;61178;-75
2023/08/05 02:37:42;;;;;;;6.20;3.80;;;;;;;23.86;100.00;99593.17;105947;1258;61352;-75
2023/08/05 02:40:10;;;;;;;5.80;3.60;;;;;;;23.85;100.00;99593.95;105954;1253;74710;-76
2023/08/05 02:42:37;;;;;;;5.70;4.00;;;;;;;23.84;100.00;99596.85;106090;1252;71170;-75
2023/08/05 02:45:04;;;;;;;4.30;3.90;;;;;;;23.83;100.00;99600.92;105932;1251;72563;-75
2023/08/05 02:47:32;;;;;;;4.30;4.00;;;;;;;23.81;100.00;99605.02;105980;1251;61295;-74
2023/08/05 02:50:00;;;;;;;7.20;3.80;;;;;;;23.78;100.00;99608.88;105908;1251;61228;-75
2023/08/05 02:52:27;;;;;;;8.70;3.80;;;;;;;23.73;100.00;99606.19;105928;1253;75109;-75
2023/08/05 02:54:54;;;;;;;5.30;3.70;;;;;;;23.72;100.00;99599.52;105990;1250;70991;-75
2023/08/05 02:57:20;;;;;;;6.40;3.90;;;;;;;23.72;100.00;99600.36;105962;1251;72404;-75
2023/08/05 02:59:47;;;;;;;6.60;3.90;;;;;;;23.72;100.00;99594.83;105920;1251;61460;-75
2023/08/05 03:02:15;;;;;;;8.20;4.60;;;;;;;23.72;100.00;99599.98;105825;1250;61228;-75
2023/08/05 03:04:42;;;;;;;4.80;4.20;;;;;;;23.72;100.00;99594.27;106069;1253;74686;-75
2023/08/05 03:07:10;;;;;;;4.80;4.30;;;;;;;23.73;100.00;99594.36;105962;1253;61283;-75
2023/08/05 03:09:37;;;;;;;6.80;4.20;;;;;;;23.76;100.00;99598.46;105900;1251;73098;-75
2023/08/05 03:12:07;;;;;;;3.90;3.60;;;;;;;23.78;100.00;99604.93;105946;1251;61902;-76
2023/08/05 03:14:34;;;;;;;9.30;4.70;;;;;;;23.78;100.00;99604.52;106022;1250;61260;-75
2023/08/05 03:17:02;;;;;;;7.10;3.90;;;;;;;23.80;100.00;99599.22;106086;1252;65727;-75
2023/08/05 03:19:29;;;;;;;4.70;3.90;;;;;;;23.81;100.00;99601.98;105951;1254;71002;-75
2023/08/05 03:21:56;;;;;;;4.50;3.90;;;;;;;23.81;100.00;99603.92;105964;1252;72586;-75
2023/08/05 03:24:23;;;;;;;7.70;4.20;;;;;;;23.81;100.00;99604.65;105885;1251;61302;-75
2023/08/05 03:26:51;;;;;;;6.20;3.90;;;;;;;23.81;100.00;99608.96;106006;1253;61177;-77
2023/08/05 03:29:18;;;;;;;7.10;4.10;;;;;;;23.83;100.00;99607.04;105954;1256;74363;-74
2023/08/05 03:31:48;;;;;;;5.10;4.00;;;;;;;23.83;100.00;99608.22;105983;1254;70976;-75
2023/08/05 03:34:16;;;;;;;6.40;4.60;;;;;;;23.84;100.00;99604.58;105996;1254;72371;-76
2023/08/05 03:36:43;;;;;;;8.20;5.00;;;;;;;23.85;100.00;99612.17;105854;1255;61286;-75
2023/08/05 03:39:09;;;;;;;5.20;4.40;;;;;;;23.87;100.00;99613.84;105878;1251;61343;-75
2023/08/05 03:41:36;;;;;;;7.10;4.60;;;;;;;23.87;100.00;99617.19;105936;1251;72668;-75
2023/08/05 03:44:03;;;;;;;4.80;4.40;;;;;;;23.88;100.00;99615.69;105944;1251;69676;-74
2023/08/05 03:46:30;;;;;;;8.90;5.30;;;;;;;23.88;100.00;99610.12;105956;1253;72795;-75
2023/08/05 03:48:56;;;;;;;8.70;4.90;;;;;;;23.89;100.00;99613.69;105935;1249;61333;-75
2023/08/05 03:51:23;;;;;;;5.70;5.00;;;;;;;23.89;100.00;99615.38;105968;1251;61416;-75
2023/08/05 03:53:50;;;;;;;5.90;5.00;;;;;;;23.92;100.00;99616.60;105965;1251;74456;-74
2023/08/05 03:56:21;;;;;;;6.20;4.80;;;;;;;23.94;100.00;99616.59;106005;1251;70986;-75
2023/08/05 03:58:51;;;;;;;9.70;5.10;;;;;;;23.96;100.00;99620.55;105922;1251;72998;-74
2023/08/05 04:01:19;;;;;;;8.20;5.00;;;;;;;23.97;100.00;99620.94;105759;1251;61293;-75
2023/08/05 04:03:46;;;;;;;5.50;5.00;;;;;;;24.00;100.00;99621.10;105939;1255;61106;-74
2023/08/05 04:06:12;;;;;;;5.60;4.80;;;;;;;24.03;100.00;99616.89;105945;1251;74449;-75
2023/08/05 04:08:39;;;;;;;7.10;4.80;;;;;;;24.05;100.00;99613.26;105988;1251;71119;-75
2023/08/05 04:11:08;;;;;;;7.00;5.50;;;;;;;24.08;100.00;99616.93;106012;1251;72762;-75
2023/08/05 04:13:37;;;;;;;9.60;5.20;;;;;;;24.11;100.00;99614.71;105929;1253;61350;-75
2023/08/05 04:16:04;;;;;;;9.00;5.50;;;;;;;24.15;100.00;99614.73;105832;1251;61141;-74
2023/08/05 04:18:34;;;;;;;6.50;5.20;;;;;;;24.19;100.00;99626.59;106006;1251;74472;-75
2023/08/05 04:21:03;;;;;;;7.80;4.90;;;;;;;24.23;100.00;99629.06;105802;1256;69781;-74
2023/08/05 04:23:34;;;;;;;11.00;5.40;;;;;;;24.27;100.00;99627.29;105923;1251;72339;-75
2023/08/05 04:26:03;;;;;;;6.10;4.90;;;;;;;24.29;100.00;99628.36;105968;1251;61308;-75
2023/08/05 04:28:29;;;;;;;5.90;4.80;;;;;;;24.32;100.00;99624.18;105943;1251;61243;-74
2023/08/05 04:30:57;;;;;;;6.90;4.60;;;;;;;24.35;100.00;99619.73;105911;1253;75060;-75
2023/08/05 04:33:27;;;;;;;5.20;4.40;;;;;;;24.39;100.00;99608.64;106003;1253;69734;-74
2023/08/05 04:35:54;;;;;;;5.00;4.50;;;;;;;24.39;100.00;99604.62;105969;1251;72517;-75
2023/08/05 04:38:21;;;;;;;9.90;5.00;;;;;;;24.41;100.00;99603.79;105920;1251;61270;-75
2023/08/05 04:40:47;;;;;;;5.90;4.70;;;;;;;24.41;100.00;99605.17;105935;1254;61317;-75
2023/08/05 04:43:14;;;;;;;9.20;4.70;;;;;;;24.42;100.00;99604.16;105947;1254;73134;-75
2023/08/05 04:45:40;;;;;;;6.80;5.00;;;;;;;24.42;100.00;99607.40;105868;1251;61349;-74
2023/08/05 04:48:07;;;;;;;6.70;4.90;;;;;;;24.43;100.00;99613.83;105950;1252;72679;-75
2023/08/05 04:50:40;;;;;;;7.00;4.90;;;;;;;24.43;100.00;99614.83;105930;1253;61308;-74
2023/08/05 04:53:07;;;;;;;8.00;5.70;;;;;;;24.45;100.00;99615.98;105999;1251;61222;-75
2023/08/05 04:55:33;;;;;;;6.20;4.70;;;;;;;24.47;100.00;99617.51;106005;1251;74574;-75
2023/08/05 04:58:00;;;;;;;5.60;4.80;;;;;;;24.51;100.00;99616.90;105909;1253;61244;-75
2023/08/05 05:00:28;;;;;;;6.60;4.80;;;;;;;24.53;100.00;99612.20;105899;1251;72427;-75
2023/08/05 05:02:54;;;;;;;6.60;4.80;;;;;;;24.55;100.00;99611.89;105963;1251;61304;-75
2023/08/05 05:05:22;;;;;;;8.10;5.20;;;;;;;24.56;100.00;99610.87;105928;1254;61276;-75
2023/08/05 05:07:49;;;;;;;11.90;5.30;;;;;;;24.58;100.00;99603.69;105927;1250;74432;-75
2023/08/05 05:10:16;;;;;;;7.30;5.50;;;;;;;24.62;100.00;99602.95;105920;1251;71066;-74
2023/08/05 05:12:42;;;;;;;8.10;5.40;;;;;;;24.66;100.00;99604.38;105908;1254;72819;-74
2023/08/05 05:15:09;;;;;;;8.00;5.20;;;;;;;24.70;100.00;99604.02;105988;1251;61305;-76
2023/08/05 05:17:36;;;;;;;8.30;5.30;;;;;;;24.74;100.00;99605.27;105979;1253;61164;-75
2023/08/05 05:20:04;;;;;;;7.90;5.30;;;;;;;24.78;100.00;99612.06;106003;1253;74868;-76
2023/08/05 05:22:32;;;;;;;7.30;5.20;;;;;;;24.83;100.00;99616.80;105935;1251;71026;-75
2023/08/05 05:24:59;;;;;;;7.40;5.10;;;;;;;24.89;100.00;99618.60;106001;1251;73134;-75
2023/08/05 05:27:25;;;;;;;12.30;5.40;;;;;;;24.95;100.00;99616.27;105950;1251;61240;-75
2023/08/05 05:29:52;;;;;;;8.30;5.10;;;;;;;25.00;100.00;99613.27;105920;1253;61275;-75
2023/08/05 05:32:19;;;;;;;7.20;4.90;;;;;;;25.04;100.00;99608.05;105978;1251;61349;-75
2023/08/05 05:34:45;;;;;;;9.80;5.60;;;;;;;25.10;100.00;99609.52;105934;1251;61237;-75
2023/08/05 05:37:12;;;;;;;8.20;5.20;;;;;;;25.13;100.00;99605.02;105969;1251;71163;-76
2023/08/05 05:39:40;;;;;;;7.80;5.00;;;;;;;25.18;100.00;99602.41;105969;1251;61353;-76
2023/08/05 05:42:07;;;;;;;10.00;5.40;;;;;;;25.23;100.00;99596.19;106038;1251;61378;-76
2023/08/05 05:44:34;;;;;;;6.40;5.00;;;;;;;25.30;100.00;99600.49;105925;1250;74673;-75
2023/08/05 05:47:00;;;;;;;5.80;5.10;;;;;;;25.35;100.00;99597.45;105940;1250;71131;-75
2023/08/05 05:49:27;;;;;;;14.20;5.70;;;;;;;25.42;100.00;99596.07;105948;1253;72583;-76
2023/08/05 05:51:54;;;;;;;8.00;5.30;;;;;;;25.47;100.00;99595.90;105982;1250;61266;-75
2023/08/05 05:54:20;;;;;;;10.80;5.00;;;;;;;25.55;100.00;99595.39;105988;1251;61257;-75
2023/08/05 05:56:47;;;;;;;7.50;5.80;;;;;;;25.61;100.00;99588.85;105973;1250;61372;-75
2023/08/05 05:59:14;;;;;;;8.50;5.20;;;;;;;25.69;100.00;99593.33;105961;1253;70881;-76
2023/08/05 06:01:40;;;;;;;9.10;5.80;;;;;;;25.76;100.00;99590.83;105901;1253;72477;-76
2023/08/05 06:04:09;;;;;;;6.70;5.20;;;;;;;25.83;100.00;99588.38;105939;1251;61253;-76
2023/08/05 06:06:36;;;;;;;8.00;5.50;;;;;;;25.90;100.00;99578.83;106015;1251;61189;-75
2023/08/05 06:09:03;;;;;;;8.40;4.90;;;;;;;25.98;100.00;99579.39;105908;1254;74733;-76
2023/08/05 06:11:33;;;;;;;5.50;4.80;;;;;;;26.06;100.00;99582.55;105974;1252;69525;-76
2023/08/05 06:14:01;;;;;;;10.00;4.90;;;;;;;26.13;100.00;99580.06;105991;1254;72411;-75
2023/08/05 06:16:27;;;;;;;6.80;4.90;;;;;;;26.20;100.00;99583.67;105942;1253;61630;-74
2023/08/05 06:18:54;;;;;;;8.30;5.40;;;;;;;26.27;100.00;99588.20;106012;1250;61337;-77
2023/08/05 06:21:21;;;;;;;6.40;4.90;;;;;;;26.34;100.00;99585.72;105996;1250;74401;-76
2023/08/05 06:23:50;;;;;;;5.80;4.90;;;;;;;26.43;100.00;99584.48;105903;1254;70923;-75
2023/08/05 06:26:16;;;;;;;7.40;4.80;;;;;;;26.50;100.00;99580.91;105926;1250;72488;-75
2023/08/05 06:28:43;;;;;;;16.50;9.00;;;;;;;26.57;100.00;99573.89;105906;1250;61314;-75
2023/08/05 06:31:10;;;;;;;29.40;17.10;;;;;;;26.64;100.00;99572.16;105934;1253;61207;-75
2023/08/05 06:33:37;;;;;;;18.60;11.50;;;;;;;26.71;100.00;99579.55;105951;1253;74516;-75
2023/08/05 06:36:04;;;;;;;11.20;6.30;;;;;;;26.78;100.00;99584.36;105937;1250;61312;-75
2023/08/05 06:38:30;;;;;;;10.50;5.90;;;;;;;26.85;100.00;99580.95;105971;1250;73029;-76
2023/08/05 06:40:57;;;;;;;12.10;5.70;;;;;;;26.93;100.00;99579.31;106157;1250;61336;-76
2023/08/05 06:43:23;;;;;;;18.40;7.30;;;;;;;27.01;100.00;99576.14;106024;1251;61324;-75
2023/08/05 06:45:53;;;;;;;13.70;6.70;;;;;;;27.08;100.00;99572.20;105971;1251;73260;-75
2023/08/05 06:48:19;;;;;;;12.10;5.90;;;;;;;27.14;100.00;99568.50;105975;1250;69653;-75
2023/08/05 06:50:46;;;;;;;9.40;5.40;;;;;;;27.21;100.00;99565.06;106002;1251;61365;-77
2023/08/05 06:53:12;;;;;;;20.20;7.90;;;;;;;27.28;100.00;99568.39;106030;1250;61259;-75
2023/08/05 06:55:39;;;;;;;9.60;6.40;;;;;;;27.33;100.00;99569.27;106033;1250;61266;-75
2023/08/05 06:58:06;;;;;;;13.20;8.50;;;;;;;27.38;100.00;99570.02;105988;1250;74746;-75
2023/08/05 07:00:34;;;;;;;17.50;10.10;;;;;;;27.43;100.00;99570.21;105920;1250;70865;-75
2023/08/05 07:03:02;;;;;;;11.70;7.00;;;;;;;27.50;100.00;99568.77;106039;1254;72713;-76
2023/08/05 07:05:29;;;;;;;11.00;7.10;;;;;;;27.56;100.00;99566.88;105972;1249;61306;-75
2023/08/05 07:07:56;;;;;;;5.90;4.90;;;;;;;27.62;100.00;99565.38;106045;1253;61196;-76
2023/08/05 07:10:23;;;;;;;7.00;5.00;;;;;;;27.69;100.00;99564.23;105955;1251;74684;-75
2023/08/05 07:12:50;;;;;;;5.90;4.80;;;;;;;27.76;100.00;99567.23;106013;1251;62195;-75
2023/08/05 07:15:16;;;;;;;11.80;5.70;;;;;;;27.84;100.00;99568.27;105966;1251;61285;-74
2023/08/05 07:17:43;;;;;;;11.50;5.00;;;;;;;27.91;100.00;99571.11;105995;1251;61114;-75
2023/08/05 07:20:10;;;;;;;9.90;4.60;;;;;;;27.99;100.00;99571.52;106022;1251;61238;-75
2023/08/05 07:22:37;;;;;;;6.70;4.50;;;;;;;28.08;100.00;99564.33;106013;1253;65816;-75
2023/08/05 07:25:04;;;;;;;6.50;4.50;;;;;;;28.16;100.00;99557.62;105932;1251;62427;-75
2023/08/05 07:27:31;;;;;;;11.40;4.30;;;;;;;28.24;100.00;99557.13;105975;1254;64056;-76
2023/08/05 07:29:58;;;;;;;7.70;4.80;;;;;;;28.31;100.00;99548.58;106036;1251;61273;-75
2023/08/05 07:32:25;;;;;;;10.50;4.50;;;;;;;28.39;100.00;99554.07;105991;1250;61426;-75
2023/08/05 07:34:55;;;;;;;8.10;5.00;;;;;;;28.47;100.00;99543.25;106030;1251;73620;-75
2023/08/05 07:37:24;;;;;;;11.60;6.30;;;;;;;28.54;100.00;99540.48;106045;1251;61327;-75
2023/08/05 07:39:51;;;;;;;9.30;4.90;;;;;;;28.62;100.00;99545.99;106080;1250;63933;-75
2023/08/05 07:42:20;;;;;;;11.30;4.70;;;;;;;28.70;100.00;99551.85;105945;1251;61244;-76
2023/08/05 07:44:49;;;;;;;7.00;4.20;;;;;;;28.77;100.00;99543.79;106143;1253;61100;-75
2023/08/05 07:47:16;;;;;;;7.60;4.30;;;;;;;28.85;100.00;99535.94;105967;1253;74474;-75
2023/08/05 07:49:43;;;;;;;9.30;5.20;;;;;;;28.91;100.00;99541.00;105904;1251;62793;-75
2023/08/05 07:52:10;;;;;;;4.70;4.20;;;;;;;28.98;100.00;99549.39;105953;1251;64122;-74
2023/08/05 07:54:36;;;;;;;10.00;3.90;;;;;;;29.07;100.00;99549.54;106037;1250;61253;-74
2023/08/05 07:57:03;;;;;;;9.70;4.20;;;;;;;29.13;100.00;99547.08;106070;1249;61177;-76
2023/08/05 07:59:30;;;;;;;4.80;4.10;;;;;;;29.20;100.00;99550.19;106148;1253;65838;-78
2023/08/05 08:01:59;;;;;;;7.60;6.00;;;;;;;29.27;100.00;99544.34;106055;1251;62491;-76
2023/08/05 08:04:26;;;;;;;10.10;4.40;;;;;;;29.36;100.00;99543.27;105961;1253;62645;-77
2023/08/05 08:06:52;;;;;;;10.60;4.10;;;;;;;29.42;100.00;99543.46;105982;1253;61225;-75
2023/08/05 08:09:19;;;;;;;7.20;4.60;;;;;;;29.48;100.00;99536.27;106025;1250;61260;-75
2023/08/05 08:11:46;;;;;;;7.20;4.40;;;;;;;29.54;100.00;99537.55;106039;1253;65837;-73
2023/08/05 08:14:13;;;;;;;6.30;3.80;;;;;;;29.61;100.00;99539.66;106062;1250;62469;-75
2023/08/05 08:16:40;;;;;;;4.40;3.90;;;;;;;29.69;100.00;99541.33;106020;1253;63833;-75
2023/08/05 08:19:08;;;;;;;6.20;3.90;;;;;;;29.76;100.00;99538.52;106047;1250;61164;-74
2023/08/05 08:21:35;;;;;;;9.90;3.80;;;;;;;29.82;100.00;99523.21;106203;1252;61176;-74
2023/08/05 08:24:02;;;;;;;15.20;3.60;;;;;;;29.87;100.00;99515.23;106056;1250;65767;-76
2023/08/05 08:26:29;;;;;;;7.60;3.70;;;;;;;29.92;100.00;99526.34;106183;1251;62312;-74
2023/08/05 08:28:56;;;;;;;10.20;3.30;;;;;;;29.98;100.00;99515.30;106007;1253;64105;-75
2023/08/05 08:31:22;;;;;;;11.60;3.20;;;;;;;30.04;100.00;99516.52;106217;1249;61253;-75
2023/08/05 08:33:50;;;;;;;18.60;3.90;;;;;;;30.07;100.00;99515.09;106277;1251;61185;-76
2023/08/05 08:36:18;;;;;;;10.30;3.40;;;;;;;30.09;100.00;99511.91;106408;1253;66173;-76
2023/08/05 08:38:45;;;;;;;9.10;3.50;;;;;;;30.12;100.00;99512.36;106269;1253;62391;-75
2023/08/05 08:41:11;;;;;;;8.90;3.40;;;;;;;30.13;100.00;99507.90;106290;1251;61336;-75
2023/08/05 08:43:38;;;;;;;5.50;3.30;;;;;;;30.13;100.00;99506.94;106306;1250;61305;-75
2023/08/05 08:46:05;;;;;;;4.00;3.10;;;;;;;30.15;100.00;99503.29;106313;1250;61286;-75
2023/08/05 08:48:32;;;;;;;10.80;3.00;;;;;;;30.18;100.00;99500.52;106298;1256;65863;-75
2023/08/05 08:50:59;;;;;;;9.70;3.30;;;;;;;30.24;100.00;99509.30;106301;1249;62263;-74
2023/08/05 08:53:25;;;;;;;6.00;3.20;;;;;;;30.29;100.00;99509.23;106107;1255;63870;-75
2023/08/05 08:55:52;;;;;;;7.20;3.20;;;;;;;30.34;100.00;99513.71;106282;1250;61459;-75
2023/08/05 08:58:19;;;;;;;5.50;2.80;;;;;;;30.37;100.00;99509.70;106154;1253;61269;-75
2023/08/05 09:00:46;;;;;;;11.40;3.30;;;;;;;30.40;100.00;99508.36;105996;1250;65900;-75
2023/08/05 09:03:13;;;;;;;7.90;2.90;;;;;;;30.44;100.00;99506.80;105919;1250;62619;-76
2023/08/05 09:05:44;;;;;;;9.80;2.80;;;;;;;30.49;100.00;99510.08;105992;1251;62810;-75
2023/08/05 09:08:11;;;;;;;5.00;3.00;;;;;;;30.57;100.00;99512.63;106172;1250;61102;-76
2023/08/05 09:10:38;;;;;;;9.40;3.00;;;;;;;30.66;100.00;99508.30;106351;1253;61136;-76
2023/08/05 09:13:05;;;;;;;5.50;2.90;;;;;;;30.74;100.00;99514.76;106362;1251;64865;-75
2023/08/05 09:15:36;;;;;;;9.90;2.80;;;;;;;30.82;100.00;99516.38;106215;1256;62444;-76
2023/08/05 09:18:04;;;;;;;6.10;2.60;;;;;;;30.86;100.00;99515.31;106292;1253;63921;-75
2023/08/05 09:20:35;;;;;;;8.80;2.70;;;;;;;30.89;100.00;99520.27;106216;1250;61253;-76
2023/08/05 09:23:06;;;;;;;4.40;3.00;;;;;;;30.89;100.00;99522.34;106383;1250;61346;-76
2023/08/05 09:25:33;;;;;;;4.90;2.80;;;;;;;30.89;100.00;99525.52;106207;1253;65974;-76
2023/08/05 09:28:01;;;;;;;4.50;2.20;;;;;;;30.90;100.00;99519.80;106015;1253;61396;-75
2023/08/05 09:30:29;;;;;;;13.70;3.30;;;;;;;30.92;100.00;99517.71;106023;1250;64058;-75
2023/08/05 09:32:56;;;;;;;7.70;3.20;;;;;;;30.98;100.00;99522.10;105982;1253;61390;-76
2023/08/05 09:35:24;;;;;;;10.80;2.70;;;;;;;31.05;100.00;99520.86;106149;1250;61267;-75
2023/08/05 09:37:51;;;;;;;5.70;2.70;;;;;;;31.12;100.00;99518.62;106158;1250;64590;-76
2023/08/05 09:40:24;;;;;;;2.90;2.70;;;;;;;31.17;100.00;99514.09;105995;1251;61537;-75
2023/08/05 09:42:54;;;;;;;6.80;3.00;;;;;;;31.20;100.00;99516.39;106225;1250;63887;-77
2023/08/05 09:45:21;;;;;;;5.60;3.00;;;;;;;31.24;100.00;99514.11;106251;1252;61333;-75
2023/08/05 09:47:52;;;;;;;3.80;2.60;;;;;;;31.26;100.00;99511.47;106208;1251;61173;-76
2023/08/05 09:50:20;;;;;;;6.10;2.70;;;;;;;31.27;100.00;99506.66;106072;1252;64664;-74
2023/08/05 09:52:49;;;;;;;12.90;3.00;;;;;;;31.28;100.00;99509.93;106057;1250;61336;-74
2023/08/05 09:55:16;;;;;;;9.60;2.80;;;;;;;31.31;100.00;99512.65;105880;1252;63729;-75
2023/08/05 09:57:43;;;;;;;8.00;2.60;;;;;;;31.34;100.00;99511.05;106083;1251;61382;-76
2023/08/05 10:00:11;;;;;;;3.20;2.60;;;;;;;31.39;100.00;99512.90;106025;1250;61371;-77
2023/08/05 10:02:41;;;;;;;11.00;3.20;;;;;;;31.42;100.00;99508.02;106143;1253;65836;-75
2023/08/05 10:05:12;;;;;;;3.70;2.70;;;;;;;31.42;100.00;99510.60;106178;1250;62292;-74
2023/08/05 10:07:42;;;;;;;4.50;2.90;;;;;;;31.42;100.00;99506.63;106014;1251;63921;-75
2023/08/05 10:10:13;;;;;;;7.60;3.30;;;;;;;31.48;100.00;99513.08;106144;1251;61325;-75
2023/08/05 10:12:47;;;;;;;7.30;3.00;;;;;;;31.53;100.00;99504.06;106082;1251;61370;-75
2023/08/05 10:15:18;;;;;;;7.20;2.90;;;;;;;31.56;100.00;99506.34;106244;1251;65952;-76
2023/08/05 10:17:45;;;;;;;3.00;2.70;;;;;;;31.62;100.00;99507.11;105953;1254;61344;-75
2023/08/05 10:20:12;;;;;;;6.60;2.40;;;;;;;31.69;100.00;99509.45;105885;1256;64440;-76
2023/08/05 10:22:41;;;;;;;6.30;2.80;;;;;;;31.76;100.00;99515.83;106147;1251;61793;-74
2023/08/05 10:25:08;;;;;;;10.00;2.70;;;;;;;31.79;100.00;99504.23;106138;1250;61924;-77
2023/08/05 10:27:44;;;;;;;3.00;2.70;;;;;;;31.81;100.00;99500.36;106033;1253;65722;-74
2023/08/05 10:30:12;;;;;;;8.60;3.10;;;;;;;31.85;100.00;99501.28;106050;1253;61273;-75
2023/08/05 10:32:55;;;;;;;4.10;2.80;;;;;;;31.88;100.00;99498.06;105982;1249;63792;-75
2023/08/05 10:35:28;;;;;;;4.00;2.70;;;;;;;31.88;100.00;99497.52;106151;1251;61253;-76
2023/08/05 10:38:16;;;;;;;7.00;3.00;;;;;;;31.87;100.00;99497.33;106060;1251;61256;-74
2023/08/05 10:40:48;;;;;;;8.20;2.70;;;;;;;31.83;100.00;99494.61;106180;1251;64693;-75
2023/08/05 10:43:30;;;;;;;6.70;2.70;;;;;;;31.82;100.00;99496.52;106058;1253;61358;-76
2023/08/05 10:46:05;;;;;;;7.10;2.70;;;;;;;31.89;100.00;99496.52;105986;1249;71709;-75
2023/08/05 10:48:45;;;;;;;4.90;2.70;;;;;;;31.97;100.00;99495.64;105911;1250;61301;-75
2023/08/05 10:51:13;;;;;;;3.00;2.70;;;;;;;32.04;100.00;99489.93;105882;1251;61366;-75
2023/08/05 10:53:45;;;;;;;12.70;3.20;;;;;;;32.08;100.00;99490.30;105996;1250;65874;-74
2023/08/05 10:56:18;;;;;;;5.90;2.60;;;;;;;32.11;100.00;99489.79;105964;1250;61333;-75
2023/08/05 10:58:48;;;;;;;7.10;2.50;;;;;;;32.11;100.00;99487.61;105955;1251;62734;-74
2023/08/05 11:01:15;;;;;;;3.10;2.70;;;;;;;32.13;100.00;99479.84;105948;1251;61352;-74
2023/08/05 11:03:56;;;;;;;5.20;2.40;;;;;;;32.18;100.00;99478.73;105929;1250;61261;-75
2023/08/05 11:06:24;;;;;;;10.70;2.50;;;;;;;32.23;100.00;99475.17;106053;1253;65969;-75
2023/08/05 11:08:50;;;;;;;3.10;2.90;;;;;;;32.30;100.00;99478.83;106061;1251;62360;-75
2023/08/05 11:11:18;;;;;;;5.80;3.00;;;;;;;32.36;100.00;99476.42;105949;1252;64023;-74
2023/08/05 11:13:47;;;;;;;7.70;3.00;;;;;;;32.39;100.00;99479.09;105187;1253;1099768;-75
2023/08/05 11:16:18;;;;;;;10.90;2.90;;;;;;;32.44;100.00;99477.95;106069;1250;61340;-75
2023/08/05 11:18:46;;;;;;;4.00;2.70;;;;;;;32.50;100.00;99477.58;106163;1253;65943;-75